Time;durP1;ratioP1;P1;durP2;ratioP2;P2;SDS_P1;SDS_P2;PMS_P1;PMS_P2;Temp;Humidity;BMP_temperature;BMP_pressure;BME280_temperature;BME280_humidity;BME280_pressure;Samples;Min_cycle;Max_cycle;Signal;HPM_P1;HPM_P2
2023/01/17 00:01:44;;;;;;;10.90;7.40;;;;;;;4.01;98.41;98132.49;105360;1260;97202;-76
2023/01/17 00:10:39;;;;;;;12.00;7.80;;;;;;;4.03;98.97;98120.03;105537;1260;100048;-76
2023/01/17 00:13:25;;;;;;;11.30;8.60;;;;;;;4.02;98.96;98116.45;105419;1260;98649;-76
2023/01/17 00:16:11;;;;;;;15.50;9.30;;;;;;;4.02;99.12;98106.87;105419;1255;97138;-75
2023/01/17 01:33:58;;;;;;;13.30;10.20;;;;;;;4.06;100.00;98020.57;105390;1259;99815;-75
2023/01/17 01:36:44;;;;;;;14.50;9.70;;;;;;;4.06;100.00;98017.13;105480;1259;99971;-76
2023/01/17 01:39:29;;;;;;;14.40;9.80;;;;;;;4.04;100.00;98011.33;105493;1259;99061;-77
2023/01/17 01:42:15;;;;;;;13.20;9.70;;;;;;;4.04;100.00;98005.98;105404;1255;98405;-76
2023/01/17 01:45:14;;;;;;;14.30;9.40;;;;;;;4.06;100.00;97998.84;105354;1257;98453;-75
2023/01/17 01:48:13;;;;;;;16.20;10.10;;;;;;;4.07;100.00;97998.10;105567;1259;98399;-74
2023/01/17 01:51:03;;;;;;;15.70;9.90;;;;;;;4.08;100.00;97992.80;105249;1257;100217;-75
2023/01/17 01:53:52;;;;;;;16.80;11.20;;;;;;;4.10;100.00;97990.48;105594;1257;100376;-75
2023/01/17 01:56:38;;;;;;;15.50;10.30;;;;;;;4.10;100.00;97987.30;105476;1257;97854;-76
2023/01/17 01:59:24;;;;;;;14.20;10.20;;;;;;;4.09;100.00;97986.60;105316;1256;97877;-75
2023/01/17 02:02:10;;;;;;;15.50;10.80;;;;;;;4.07;100.00;97986.08;105595;1256;97762;-74
2023/01/17 02:04:58;;;;;;;16.30;11.30;;;;;;;4.08;100.00;97980.21;105472;1257;100735;-76
2023/01/17 02:08:14;;;;;;;19.30;13.40;;;;;;;4.10;100.00;97974.54;105488;1257;100417;-76
2023/01/17 02:10:59;;;;;;;18.20;12.90;;;;;;;4.13;100.00;97971.83;105411;1255;98932;-76
2023/01/17 02:13:45;;;;;;;18.50;13.40;;;;;;;4.15;100.00;97967.14;105353;1259;96684;-76
2023/01/17 02:17:01;;;;;;;15.70;11.80;;;;;;;4.16;100.00;97957.60;105390;1258;97879;-75
2023/01/17 02:20:07;;;;;;;18.10;11.60;;;;;;;4.18;100.00;97953.75;105683;1258;101240;-76
2023/01/17 02:23:18;;;;;;;19.10;12.80;;;;;;;4.18;100.00;97952.94;105458;1260;100341;-78
2023/01/17 02:26:22;;;;;;;;;;;;;;;4.18;100.00;97954.05;105398;1259;98725;-77
2023/01/17 02:29:20;;;;;;;18.20;12.50;;;;;;;4.18;100.00;97952.38;105395;1259;96577;-76
2023/01/17 02:32:20;;;;;;;17.40;12.00;;;;;;;4.20;100.00;97959.38;105331;1259;97019;-77
2023/01/17 02:35:24;;;;;;;17.40;11.80;;;;;;;4.22;100.00;97961.90;105229;1260;100667;-76
2023/01/17 02:38:20;;;;;;;15.50;11.40;;;;;;;4.23;100.00;97952.03;105504;1260;100390;-76
2023/01/17 02:41:14;;;;;;;16.00;11.10;;;;;;;4.25;100.00;97950.27;105422;1257;98999;-76
2023/01/17 02:44:01;;;;;;;16.40;10.90;;;;;;;4.26;100.00;97952.05;105434;1259;97301;-77
2023/01/17 02:46:48;;;;;;;18.10;12.20;;;;;;;4.27;100.00;97949.36;105420;1256;97916;-76
2023/01/17 02:49:34;;;;;;;16.30;11.30;;;;;;;4.30;100.00;97947.59;105463;1256;99972;-77
2023/01/17 02:52:33;;;;;;;17.20;11.70;;;;;;;4.31;100.00;97947.95;105702;1257;99228;-75
2023/01/17 02:55:50;;;;;;;18.50;11.80;;;;;;;4.32;100.00;97938.86;105440;1257;99021;-76
2023/01/17 02:58:54;;;;;;;19.30;12.10;;;;;;;4.33;100.00;97935.15;105373;1257;96596;-76
2023/01/17 03:02:14;;;;;;;19.00;12.70;;;;;;;4.35;100.00;97928.12;105278;1260;97093;-76
2023/01/17 03:05:15;;;;;;;19.00;12.30;;;;;;;4.37;100.00;97924.12;105380;1260;101211;-75
2023/01/17 03:08:01;;;;;;;;;;;;;;;4.39;100.00;97916.64;105402;1255;99277;-76
2023/01/17 03:10:47;;;;;;;19.60;13.00;;;;;;;4.39;100.00;97913.25;105347;1257;99153;-75
2023/01/17 03:13:32;;;;;;;21.30;13.90;;;;;;;4.39;100.00;97910.23;105519;1257;97189;-76
2023/01/17 03:16:20;;;;;;;18.10;12.10;;;;;;;4.39;100.00;97912.08;105402;1259;98425;-75
2023/01/17 03:19:05;;;;;;;20.10;13.30;;;;;;;4.38;100.00;97918.33;105576;1257;101246;-75
2023/01/17 03:21:50;;;;;;;18.60;12.60;;;;;;;4.38;100.00;97918.64;105375;1256;99076;-76
2023/01/17 03:24:36;;;;;;;18.30;13.00;;;;;;;4.38;100.00;97917.88;105530;1259;97738;-77
2023/01/17 03:27:21;;;;;;;21.30;13.10;;;;;;;4.36;100.00;97917.08;105440;1256;96620;-76
2023/01/17 03:30:08;;;;;;;22.40;13.30;;;;;;;4.35;100.00;97914.08;105395;1259;97234;-76
2023/01/17 03:32:53;;;;;;;19.40;12.70;;;;;;;4.38;100.00;97914.13;105369;1256;100718;-76
2023/01/17 03:35:39;;;;;;;18.80;12.90;;;;;;;4.39;100.00;97910.20;105412;1260;100429;-76
2023/01/17 03:38:25;;;;;;;20.80;13.10;;;;;;;4.42;100.00;97914.15;105421;1257;97906;-75
2023/01/17 03:41:11;;;;;;;19.50;12.80;;;;;;;4.42;100.00;97909.61;105419;1257;96626;-74
2023/01/17 03:43:57;;;;;;;19.30;13.50;;;;;;;4.42;100.00;97904.96;105440;1256;97182;-76
2023/01/17 03:46:43;;;;;;;20.90;13.90;;;;;;;4.41;100.00;97899.17;105429;1256;101207;-75
2023/01/17 03:49:29;;;;;;;20.20;13.80;;;;;;;4.42;100.00;97903.66;105503;1256;100416;-75
2023/01/17 03:52:14;;;;;;;19.90;13.40;;;;;;;4.43;100.00;97899.98;105409;1257;97711;-75
2023/01/17 03:55:01;;;;;;;19.70;13.10;;;;;;;4.42;100.00;97903.79;105421;1257;96625;-76
2023/01/17 03:57:46;;;;;;;21.30;12.40;;;;;;;4.41;100.00;97907.17;105705;1259;96520;-75
2023/01/17 04:00:32;;;;;;;21.20;13.20;;;;;;;4.40;100.00;97905.81;105387;1258;99989;-76
2023/01/17 04:03:17;;;;;;;23.40;13.80;;;;;;;4.39;100.00;97906.78;105387;1259;100177;-75
2023/01/17 04:06:03;;;;;;;19.20;12.30;;;;;;;4.39;100.00;97907.75;105350;1259;98823;-75
2023/01/17 04:08:48;;;;;;;18.80;12.00;;;;;;;4.38;100.00;97903.64;105474;1259;96609;-75
2023/01/17 04:11:34;;;;;;;22.80;13.50;;;;;;;4.38;100.00;97899.45;105505;1257;96556;-76
2023/01/17 04:14:20;;;;;;;23.20;13.60;;;;;;;4.39;100.00;97900.91;105459;1259;100125;-74
2023/01/17 04:17:09;;;;;;;20.50;11.50;;;;;;;4.40;100.00;97900.83;105377;1259;99806;-75
2023/01/17 04:19:54;;;;;;;21.20;13.00;;;;;;;4.40;100.00;97901.47;105456;1257;98713;-74
2023/01/17 04:22:39;;;;;;;45.10;25.10;;;;;;;4.39;100.00;97901.96;105854;1258;97874;-75
2023/01/17 04:25:26;;;;;;;22.50;14.10;;;;;;;4.38;100.00;97904.91;105401;1259;97122;-75
2023/01/17 04:28:12;;;;;;;21.20;12.10;;;;;;;4.37;100.00;97909.11;105308;1257;100088;-75
2023/01/17 04:30:59;;;;;;;19.50;12.80;;;;;;;4.37;100.00;97912.50;105494;1259;100361;-74
2023/01/17 04:33:44;;;;;;;26.30;12.80;;;;;;;4.38;100.00;97911.67;105304;1259;97776;-75
2023/01/17 04:36:31;;;;;;;16.10;11.60;;;;;;;4.39;100.00;97905.44;105471;1257;96586;-76
2023/01/17 04:39:16;;;;;;;17.60;11.70;;;;;;;4.39;100.00;97905.67;105254;1260;96407;-76
2023/01/17 04:42:02;;;;;;;19.40;11.60;;;;;;;4.38;100.00;97906.87;105393;1256;99999;-75
2023/01/17 04:44:48;;;;;;;20.00;12.20;;;;;;;4.36;100.00;97910.10;105528;1258;99086;-75
2023/01/17 04:47:33;;;;;;;18.60;11.50;;;;;;;4.36;100.00;97912.95;105390;1257;97690;-75
2023/01/17 04:50:19;;;;;;;21.80;12.40;;;;;;;4.37;100.00;97911.60;105371;1255;96581;-75
2023/01/17 04:53:04;;;;;;;17.40;11.90;;;;;;;4.36;100.00;97915.96;105439;1258;97118;-76
2023/01/17 04:55:50;;;;;;;16.80;11.70;;;;;;;4.33;100.00;97916.20;105390;1257;99979;-76
2023/01/17 04:58:36;;;;;;;15.60;10.90;;;;;;;4.31;100.00;97921.99;105504;1257;99274;-75
2023/01/17 05:01:22;;;;;;;18.60;11.20;;;;;;;4.28;100.00;97928.02;105520;1256;97806;-78
2023/01/17 05:04:07;;;;;;;17.60;11.20;;;;;;;4.27;100.00;97924.61;105383;1257;97912;-76
2023/01/17 05:06:53;;;;;;;17.90;10.80;;;;;;;4.27;100.00;97926.41;105457;1259;97804;-75
2023/01/17 05:09:39;;;;;;;13.80;10.10;;;;;;;4.25;99.98;97930.79;105420;1259;99978;-76
2023/01/17 05:12:26;;;;;;;14.90;10.10;;;;;;;4.24;99.98;97932.55;105516;1259;99338;-77
2023/01/17 05:15:11;;;;;;;17.00;11.00;;;;;;;4.22;99.95;97934.19;105384;1259;97893;-76
2023/01/17 05:17:57;;;;;;;18.00;10.40;;;;;;;4.20;99.82;97931.50;105467;1259;97292;-75
2023/01/17 05:20:43;;;;;;;16.10;10.20;;;;;;;4.19;99.82;97931.83;105535;1259;97148;-76
2023/01/17 05:23:29;;;;;;;16.20;10.10;;;;;;;4.16;99.86;97935.06;105319;1257;100020;-75
2023/01/17 05:26:15;;;;;;;14.90;9.90;;;;;;;4.15;99.85;97932.58;105386;1257;100142;-76
2023/01/17 05:29:00;;;;;;;16.00;10.20;;;;;;;4.15;99.83;97931.80;105294;1257;97785;-76
2023/01/17 05:31:46;;;;;;;14.00;9.10;;;;;;;4.14;99.56;97931.69;105395;1260;97772;-76
2023/01/17 05:34:31;;;;;;;15.60;9.80;;;;;;;4.10;99.60;97931.25;105466;1256;97141;-76
2023/01/17 05:37:17;;;;;;;18.30;10.30;;;;;;;4.09;99.60;97931.83;105676;1257;99992;-76
2023/01/17 05:40:04;;;;;;;14.90;10.10;;;;;;;4.08;99.76;97931.08;105410;1259;100123;-75
2023/01/17 05:42:52;;;;;;;15.40;10.20;;;;;;;4.08;99.64;97927.31;105449;1259;97701;-75
2023/01/17 05:45:38;;;;;;;15.30;10.10;;;;;;;4.06;99.46;97925.11;105434;1257;96686;-76
2023/01/17 05:48:23;;;;;;;20.80;11.20;;;;;;;4.05;99.39;97925.45;105480;1259;97122;-75
2023/01/17 05:51:09;;;;;;;15.10;10.10;;;;;;;4.03;99.21;97925.02;105446;1259;100547;-76
2023/01/17 05:53:54;;;;;;;14.40;10.40;;;;;;;4.02;99.37;97926.65;105441;1258;100307;-74
2023/01/17 05:56:40;;;;;;;17.40;10.60;;;;;;;4.01;99.17;97928.58;105512;1257;97643;-76
2023/01/17 05:59:25;;;;;;;14.50;9.10;;;;;;;3.99;99.07;97928.13;105361;1257;96549;-76
2023/01/17 06:02:11;;;;;;;21.60;13.40;;;;;;;3.96;98.77;97928.31;105317;1259;97608;-75
2023/01/17 06:04:57;;;;;;;17.90;11.40;;;;;;;3.94;98.90;97927.48;105360;1259;101219;-75
2023/01/17 06:07:44;;;;;;;14.70;9.50;;;;;;;3.93;98.68;97925.21;105262;1259;99246;-75
2023/01/17 06:10:30;;;;;;;17.50;10.40;;;;;;;3.91;98.78;97933.42;105485;1257;98304;-76
2023/01/17 06:13:20;;;;;;;15.30;10.00;;;;;;;3.90;98.61;97944.25;105218;1257;97289;-76
2023/01/17 06:16:06;;;;;;;17.30;11.00;;;;;;;3.88;98.46;97952.73;105358;1259;98287;-75
2023/01/17 06:18:52;;;;;;;16.50;9.90;;;;;;;3.86;98.37;97955.10;105255;1257;101820;-76
2023/01/17 06:21:37;;;;;;;14.10;8.90;;;;;;;3.83;98.45;97959.15;105410;1259;100339;-76
2023/01/17 06:24:23;;;;;;;17.50;10.50;;;;;;;3.81;98.40;97961.75;105387;1259;98294;-75
2023/01/17 06:27:09;;;;;;;17.00;10.80;;;;;;;3.80;98.43;97970.61;105291;1258;96694;-76
2023/01/17 06:29:55;;;;;;;25.70;13.70;;;;;;;3.80;98.49;97981.83;105626;1259;95880;-75
2023/01/17 06:32:40;;;;;;;34.50;17.00;;;;;;;3.80;98.52;97984.57;105332;1257;101366;-75
2023/01/17 06:35:26;;;;;;;36.20;16.50;;;;;;;3.78;98.45;97985.79;105362;1259;99068;-76
2023/01/17 06:38:11;;;;;;;33.70;17.00;;;;;;;3.78;98.27;97986.17;105511;1259;99413;-75
2023/01/17 06:40:59;;;;;;;28.30;15.10;;;;;;;3.78;98.22;97994.12;105779;1259;96597;-75
2023/01/17 06:43:44;;;;;;;24.30;13.10;;;;;;;3.77;97.86;97987.92;108329;1257;94577;-75
2023/01/17 06:46:30;;;;;;;17.70;11.30;;;;;;;3.74;97.53;97985.03;105545;1258;99979;-76
2023/01/17 06:49:15;;;;;;;17.90;10.90;;;;;;;3.69;97.46;97982.15;105488;1257;100336;-74
2023/01/17 06:52:01;;;;;;;18.10;12.00;;;;;;;3.65;97.46;97980.16;105515;1257;97711;-74
2023/01/17 06:54:46;;;;;;;18.90;11.40;;;;;;;3.62;97.53;97986.33;105394;1259;96621;-75
2023/01/17 06:57:32;;;;;;;15.40;10.60;;;;;;;3.60;97.65;97994.17;105392;1259;97113;-76
2023/01/17 07:00:18;;;;;;;17.90;11.10;;;;;;;3.58;97.54;97997.91;105281;1261;101240;-75
2023/01/17 07:03:03;;;;;;;16.00;11.50;;;;;;;3.54;97.65;97995.12;105439;1259;100439;-74
2023/01/17 07:05:50;;;;;;;18.60;12.30;;;;;;;3.51;97.88;98000.53;105332;1257;98995;-75
2023/01/17 07:08:36;;;;;;;22.40;13.40;;;;;;;3.48;98.03;97999.48;105461;1258;96603;-75
2023/01/17 07:11:22;;;;;;;19.30;11.70;;;;;;;3.46;98.15;97995.70;105403;1257;97109;-75
2023/01/17 07:14:12;;;;;;;18.10;10.90;;;;;;;3.46;98.17;97996.80;105707;1257;99994;-77
2023/01/17 07:16:58;;;;;;;18.40;11.40;;;;;;;3.44;98.19;98003.23;105450;1259;99228;-75
2023/01/17 07:19:43;;;;;;;19.50;10.90;;;;;;;3.44;98.36;98007.46;105417;1257;99134;-76
2023/01/17 07:22:29;;;;;;;22.20;12.60;;;;;;;3.45;98.56;98006.40;105463;1259;96650;-76
2023/01/17 07:25:14;;;;;;;16.90;11.00;;;;;;;3.46;98.62;98009.95;105546;1259;96625;-76
2023/01/17 07:28:00;;;;;;;17.60;11.40;;;;;;;3.45;98.51;98006.70;105381;1259;99979;-76
2023/01/17 07:30:46;;;;;;;15.00;9.90;;;;;;;3.46;98.69;98005.02;105404;1259;100016;-74
2023/01/17 07:33:31;;;;;;;18.00;11.20;;;;;;;3.47;98.67;98004.89;105362;1257;99125;-76
2023/01/17 07:36:17;;;;;;;17.80;10.80;;;;;;;3.49;98.81;97996.54;105393;1256;96628;-75
2023/01/17 07:39:03;;;;;;;19.30;11.00;;;;;;;3.51;98.75;97994.67;105522;1259;96874;-75
2023/01/17 07:41:49;;;;;;;19.30;11.40;;;;;;;3.52;98.90;97993.82;105447;1259;101226;-76
2023/01/17 07:44:39;;;;;;;19.50;11.60;;;;;;;3.56;99.13;97997.20;105616;1259;99048;-74
2023/01/17 07:47:25;;;;;;;19.70;10.70;;;;;;;3.58;99.11;97989.83;105422;1259;97739;-75
2023/01/17 07:50:12;;;;;;;16.80;11.00;;;;;;;3.60;99.08;97993.45;105461;1259;96783;-76
2023/01/17 07:52:58;;;;;;;16.20;10.70;;;;;;;3.63;99.05;97998.01;105504;1259;97032;-75
2023/01/17 07:55:43;;;;;;;18.60;10.20;;;;;;;3.66;99.10;97998.23;105455;1257;100093;-76
2023/01/17 07:58:30;;;;;;;18.50;11.30;;;;;;;3.68;99.26;98002.71;105441;1257;100169;-76
2023/01/17 08:01:16;;;;;;;15.40;10.40;;;;;;;3.69;99.27;98016.15;105274;1257;97696;-74
2023/01/17 08:04:02;;;;;;;17.60;10.70;;;;;;;3.70;99.04;98024.45;105400;1257;97886;-74
2023/01/17 08:06:50;;;;;;;19.60;11.80;;;;;;;3.71;99.06;98035.78;105335;1259;97127;-75
2023/01/17 08:09:36;;;;;;;19.50;11.70;;;;;;;3.71;99.11;98042.34;105360;1259;101869;-75
2023/01/17 08:12:21;;;;;;;16.50;10.40;;;;;;;3.72;98.99;98045.96;105416;1257;100351;-75
2023/01/17 08:15:08;;;;;;;17.10;11.50;;;;;;;3.71;98.84;98048.41;105321;1257;97782;-75
2023/01/17 08:17:53;;;;;;;18.50;12.20;;;;;;;3.70;98.80;98047.31;105396;1257;97874;-75
2023/01/17 08:20:39;;;;;;;17.60;10.50;;;;;;;3.70;98.78;98043.77;105480;1257;97062;-77
2023/01/17 08:23:24;;;;;;;21.40;11.30;;;;;;;3.70;98.86;98042.50;105466;1256;101252;-76
2023/01/17 08:26:16;;;;;;;18.70;9.90;;;;;;;3.72;98.86;98040.58;105495;1259;100332;-76
2023/01/17 08:29:02;;;;;;;19.50;11.30;;;;;;;3.76;98.87;98038.02;105243;1259;97825;-77
2023/01/17 08:31:48;;;;;;;16.10;11.40;;;;;;;3.78;98.92;98041.35;105348;1256;96635;-75
2023/01/17 08:34:33;;;;;;;16.70;10.40;;;;;;;3.80;98.84;98038.34;105489;1257;96527;-74
2023/01/17 08:37:19;;;;;;;16.40;9.70;;;;;;;3.81;98.90;98044.04;105482;1258;100103;-74
2023/01/17 08:40:07;;;;;;;17.40;10.40;;;;;;;3.83;98.79;98050.07;105489;1259;100341;-73
2023/01/17 08:42:58;;;;;;;16.70;10.60;;;;;;;3.86;98.93;98048.27;105444;1259;97681;-74
2023/01/17 08:45:45;;;;;;;16.00;11.00;;;;;;;3.90;98.88;98047.61;105427;1259;96602;-75
2023/01/17 08:48:31;;;;;;;16.60;10.60;;;;;;;3.93;99.00;98044.51;105569;1259;96631;-75
2023/01/17 08:51:17;;;;;;;15.00;10.20;;;;;;;3.96;98.80;98037.49;105503;1257;100964;-74
2023/01/17 08:54:02;;;;;;;18.20;10.30;;;;;;;3.99;98.66;98035.44;105758;1270;100799;-77
2023/01/17 08:56:49;;;;;;;16.30;10.60;;;;;;;4.03;98.78;98030.67;105446;1257;97839;-75
2023/01/17 08:59:34;;;;;;;16.10;9.90;;;;;;;4.07;98.74;98028.66;105486;1257;97269;-75
2023/01/17 09:02:22;;;;;;;16.30;9.70;;;;;;;4.10;98.59;98033.87;105480;1259;98298;-74
2023/01/17 09:05:08;;;;;;;17.40;10.40;;;;;;;4.12;98.46;98029.52;105524;1257;99896;-75
2023/01/17 09:07:55;;;;;;;18.30;9.80;;;;;;;4.14;98.48;98030.43;105527;1259;100399;-75
2023/01/17 09:10:40;;;;;;;19.20;11.20;;;;;;;4.17;98.47;98031.20;105458;1260;97780;-75
2023/01/17 09:13:27;;;;;;;19.60;11.10;;;;;;;4.19;98.23;98030.70;105510;1257;97827;-75
2023/01/17 09:16:12;;;;;;;16.90;11.20;;;;;;;4.21;98.37;98033.45;105447;1258;97084;-76
2023/01/17 09:18:58;;;;;;;18.80;11.30;;;;;;;4.24;98.22;98033.05;105560;1257;100882;-74
2023/01/17 09:21:44;;;;;;;15.70;9.80;;;;;;;4.26;98.02;98035.20;105537;1255;99202;-75
2023/01/17 09:24:31;;;;;;;16.50;9.90;;;;;;;4.28;98.01;98033.73;105367;1257;98998;-74
2023/01/17 09:27:16;;;;;;;15.50;10.80;;;;;;;4.30;97.84;98034.98;105577;1255;96631;-78
2023/01/17 09:30:03;;;;;;;18.50;10.90;;;;;;;4.32;97.98;98040.49;105455;1257;96520;-77
2023/01/17 09:32:53;;;;;;;16.60;11.00;;;;;;;4.36;98.20;98040.08;105452;1259;99966;-77
2023/01/17 09:35:39;;;;;;;16.50;11.20;;;;;;;4.38;98.04;98038.48;105409;1256;99154;-74
2023/01/17 09:38:24;;;;;;;17.70;10.90;;;;;;;4.42;97.91;98034.21;106590;1256;97752;-73
2023/01/17 09:41:20;;;;;;;16.10;10.20;;;;;;;4.46;97.86;98035.27;105358;1259;96690;-77
2023/01/17 09:44:21;;;;;;;15.90;10.80;;;;;;;4.50;97.82;98035.08;105475;1257;97259;-75
2023/01/17 09:47:18;;;;;;;17.70;10.70;;;;;;;4.53;97.61;98034.61;105289;1257;100749;-74
2023/01/17 09:50:29;;;;;;;16.30;9.90;;;;;;;4.56;97.51;98037.95;105485;1257;99897;-75
2023/01/17 09:53:19;;;;;;;16.30;10.50;;;;;;;4.57;97.53;98041.30;105622;1259;99023;-74
2023/01/17 09:56:11;;;;;;;15.80;10.50;;;;;;;4.58;97.56;98042.36;105432;1259;98290;-74
2023/01/17 09:59:02;;;;;;;18.20;10.10;;;;;;;4.60;97.32;98046.17;105559;1257;97271;-76
2023/01/17 10:02:30;;;;;;;19.60;10.20;;;;;;;4.62;97.20;98049.27;105407;1260;100009;-76
2023/01/17 10:05:33;;;;;;;16.70;10.00;;;;;;;4.64;97.15;98055.95;105260;1265;99392;-76
2023/01/17 10:08:41;;;;;;;14.40;8.80;;;;;;;4.66;97.04;98053.38;105391;1255;97707;-75
2023/01/17 10:12:00;;;;;;;15.50;9.70;;;;;;;4.68;96.95;98051.32;105412;1257;97150;-74
2023/01/17 10:15:05;;;;;;;19.10;10.70;;;;;;;4.69;96.94;98059.02;105512;1259;97186;-75
2023/01/17 10:18:04;;;;;;;16.00;10.00;;;;;;;4.73;96.94;98063.16;105316;1259;101257;-76
2023/01/17 10:21:02;;;;;;;18.10;10.90;;;;;;;4.77;96.73;98068.61;98142;1271;10003382;-75
2023/01/17 10:24:02;;;;;;;15.00;10.10;;;;;;;4.79;96.70;98066.77;105441;1259;97058;-75
2023/01/17 10:26:51;;;;;;;19.50;10.90;;;;;;;4.80;96.63;98067.83;105393;1259;102094;-74
2023/01/17 10:29:36;;;;;;;23.90;12.50;;;;;;;4.83;96.99;98070.55;105553;1260;100362;-75
2023/01/17 10:32:25;;;;;;;16.00;10.00;;;;;;;4.87;96.78;98070.16;105329;1259;97726;-76
2023/01/17 10:35:19;;;;;;;18.50;10.80;;;;;;;4.88;96.42;98067.90;105408;1259;96679;-76
2023/01/17 10:38:11;;;;;;;18.90;10.30;;;;;;;4.90;96.48;98064.46;105294;1257;96431;-76
2023/01/17 10:41:13;;;;;;;21.80;11.20;;;;;;;4.93;96.33;98061.64;105456;1256;101253;-77
2023/01/17 10:44:20;;;;;;;17.10;10.50;;;;;;;4.95;96.21;98067.70;105496;1257;99784;-76
2023/01/17 10:47:10;;;;;;;15.00;10.40;;;;;;;4.97;96.11;98068.06;105363;1268;97728;-77
2023/01/17 10:49:58;;;;;;;16.90;10.50;;;;;;;4.99;96.06;98068.14;105440;1259;96599;-76
2023/01/17 10:52:58;;;;;;;16.40;9.90;;;;;;;5.01;96.05;98061.88;105382;1256;98278;-76
2023/01/17 10:55:52;;;;;;;18.10;10.30;;;;;;;5.02;96.02;98059.54;105413;1263;101063;-76
2023/01/17 10:58:37;;;;;;;17.60;10.90;;;;;;;5.03;96.08;98062.23;105426;1257;99127;-76
2023/01/17 11:01:25;;;;;;;19.30;11.40;;;;;;;5.04;95.91;98063.70;105550;1257;98946;-74
2023/01/17 11:04:20;;;;;;;18.60;11.00;;;;;;;5.06;95.64;98063.23;106354;1260;96606;-75
2023/01/17 11:07:20;;;;;;;21.20;11.80;;;;;;;5.08;95.53;98068.82;105494;1259;97959;-75
2023/01/17 11:10:35;;;;;;;19.80;11.50;;;;;;;5.10;95.68;98070.59;105519;1259;101201;-76
2023/01/17 11:13:25;;;;;;;19.00;10.60;;;;;;;5.14;96.01;98070.45;105531;1259;99066;-74
2023/01/17 11:16:19;;;;;;;16.60;10.00;;;;;;;5.16;95.89;98071.54;105398;1259;98771;-76
2023/01/17 11:19:16;;;;;;;13.50;9.80;;;;;;;5.17;95.54;98073.20;105406;1259;97899;-75
2023/01/17 11:22:05;;;;;;;14.90;9.20;;;;;;;5.20;95.51;98073.85;105323;1257;100278;-75
2023/01/17 11:24:55;;;;;;;16.30;10.10;;;;;;;5.23;95.52;98074.23;105529;1259;101354;-75
2023/01/17 11:27:40;;;;;;;17.00;9.70;;;;;;;5.26;95.50;98078.25;105522;1267;99088;-75
2023/01/17 11:30:29;;;;;;;18.30;11.00;;;;;;;5.29;95.34;98078.58;105448;1255;98937;-76
2023/01/17 11:33:25;;;;;;;16.40;9.60;;;;;;;5.32;95.43;98078.91;105699;1259;97893;-75
2023/01/17 11:36:31;;;;;;;17.00;9.90;;;;;;;5.34;95.23;98079.31;105571;1259;97903;-75
2023/01/17 11:39:17;;;;;;;15.10;9.80;;;;;;;5.35;95.11;98081.91;105790;1259;101342;-75
2023/01/17 11:42:06;;;;;;;13.40;9.00;;;;;;;5.37;94.94;98085.20;105380;1259;99051;-75
2023/01/17 11:44:52;;;;;;;13.90;9.10;;;;;;;5.38;94.64;98088.58;105426;1260;97957;-74
2023/01/17 11:47:38;;;;;;;16.70;10.10;;;;;;;5.39;94.62;98088.13;105440;1260;98043;-74
2023/01/17 11:50:25;;;;;;;17.00;9.30;;;;;;;5.41;94.67;98082.02;105298;1257;98478;-74
2023/01/17 11:53:33;;;;;;;13.10;9.00;;;;;;;5.43;94.63;98081.95;105385;1257;101480;-75
2023/01/17 11:56:30;;;;;;;15.70;10.00;;;;;;;5.46;94.63;98086.33;105502;1259;100476;-75
2023/01/17 11:59:23;;;;;;;15.30;8.50;;;;;;;5.48;94.64;98088.47;105475;1257;99094;-75
2023/01/17 12:02:30;;;;;;;13.90;8.60;;;;;;;5.49;94.30;98085.52;105491;1260;97946;-78
2023/01/17 12:05:30;;;;;;;13.60;8.90;;;;;;;5.49;94.12;98081.89;105501;1258;99238;-76
2023/01/17 12:08:37;;;;;;;13.80;8.50;;;;;;;5.50;94.08;98077.92;105501;1259;103921;-77
2023/01/17 12:13:59;;;;;;;15.60;9.20;;;;;;;5.51;93.98;98080.09;105469;1259;100488;-77
2023/01/17 12:15:19;;;;;;;14.50;9.20;;;;;;;5.52;93.95;98080.96;105461;1259;98291;-76
2023/01/17 12:18:15;;;;;;;15.40;9.10;;;;;;;5.54;93.93;98081.58;105502;1258;97868;-77
2023/01/17 12:21:09;;;;;;;14.70;9.00;;;;;;;5.58;93.84;98086.03;105826;1259;98462;-75
2023/01/17 12:24:39;;;;;;;17.20;9.90;;;;;;;5.61;93.64;98086.66;105445;1257;101918;-76
2023/01/17 12:27:55;;;;;;;18.50;9.70;;;;;;;5.65;93.74;98090.09;105215;1261;99501;-75
2023/01/17 12:30:55;;;;;;;12.30;9.00;;;;;;;5.70;93.68;98092.11;105409;1257;98650;-75
2023/01/17 12:33:56;;;;;;;16.30;9.40;;;;;;;5.74;93.33;98091.79;105557;1259;97957;-75
2023/01/17 12:36:53;;;;;;;15.40;9.80;;;;;;;5.77;92.94;98093.56;105397;1258;98501;-76
2023/01/17 12:39:46;;;;;;;14.20;9.40;;;;;;;5.77;92.53;98094.59;105662;1259;102576;-76
2023/01/17 12:42:41;;;;;;;13.60;8.90;;;;;;;5.76;92.27;98090.88;105403;1257;100354;-77
2023/01/17 12:45:36;;;;;;;15.90;9.30;;;;;;;5.76;92.13;98095.48;105432;1257;98923;-74
2023/01/17 12:48:28;;;;;;;14.80;8.30;;;;;;;5.75;91.94;98100.61;105458;1258;98047;-76
2023/01/17 12:51:38;;;;;;;12.20;8.40;;;;;;;5.73;91.80;98106.35;105345;1259;98481;-76
2023/01/17 12:54:38;;;;;;;15.10;9.20;;;;;;;5.72;91.97;98107.83;105445;1258;102576;-76
2023/01/17 12:57:30;;;;;;;14.60;9.00;;;;;;;5.71;91.89;98110.73;105444;1257;99092;-76
2023/01/17 13:00:21;;;;;;;14.90;8.70;;;;;;;5.69;91.63;98105.48;105360;1260;98474;-75
2023/01/17 13:03:14;;;;;;;12.90;8.50;;;;;;;5.70;91.94;98107.95;105385;1260;97966;-76
2023/01/17 13:06:01;;;;;;;13.90;9.10;;;;;;;5.72;91.95;98106.52;105448;1260;97979;-75
2023/01/17 13:08:51;;;;;;;14.80;8.50;;;;;;;5.75;91.88;98106.83;105567;1260;102273;-78
2023/01/17 13:11:45;;;;;;;16.20;8.90;;;;;;;5.77;91.87;98109.71;105410;1260;100283;-75
2023/01/17 13:14:31;;;;;;;13.20;9.40;;;;;;;5.78;91.70;98106.71;105422;1258;100160;-76
2023/01/17 13:17:36;;;;;;;16.90;9.90;;;;;;;5.78;91.49;98106.14;105522;1258;98037;-76
2023/01/17 13:20:32;;;;;;;18.00;9.40;;;;;;;5.79;91.67;98104.63;105377;1260;98462;-76
2023/01/17 13:23:33;;;;;;;15.40;9.90;;;;;;;5.79;91.48;98106.66;105505;1264;101329;-76
2023/01/17 13:26:35;;;;;;;15.30;9.20;;;;;;;5.80;91.52;98110.73;105389;1257;99177;-77
2023/01/17 13:29:26;;;;;;;14.60;8.00;;;;;;;5.82;91.59;98108.52;105462;1261;98510;-76
2023/01/17 13:32:20;;;;;;;14.00;8.40;;;;;;;5.82;91.58;98109.73;105428;1260;98541;-76
2023/01/17 13:35:18;;;;;;;17.80;9.00;;;;;;;5.82;91.23;98109.74;105511;1260;99633;-76
2023/01/17 13:38:28;;;;;;;13.80;8.60;;;;;;;5.82;90.91;98104.60;105561;1260;101341;-77
2023/01/17 13:41:32;;;;;;;13.40;8.90;;;;;;;5.81;90.89;98103.63;105530;1260;99093;-78
2023/01/17 13:44:28;;;;;;;12.40;8.20;;;;;;;5.79;90.86;98107.89;105465;1260;97975;-77
2023/01/17 13:47:17;;;;;;;14.90;8.80;;;;;;;5.78;90.63;98107.85;105384;1259;98360;-76
2023/01/17 13:50:02;;;;;;;14.40;8.90;;;;;;;5.76;90.50;98110.00;105451;1259;97946;-77
2023/01/17 13:52:48;;;;;;;16.60;8.70;;;;;;;5.75;90.50;98116.17;105451;1259;101361;-76
2023/01/17 13:55:45;;;;;;;17.00;8.60;;;;;;;5.73;90.50;98116.23;105465;1267;100379;-77
2023/01/17 13:58:57;;;;;;;16.90;9.10;;;;;;;5.72;90.60;98118.13;105436;1261;99266;-77
2023/01/17 14:01:42;;;;;;;15.10;8.60;;;;;;;5.73;90.80;98120.90;105404;1260;98526;-77
2023/01/17 14:05:12;;;;;;;15.60;9.90;;;;;;;5.74;91.05;98118.96;105413;1257;98476;-76
2023/01/17 14:08:02;;;;;;;16.00;9.40;;;;;;;5.74;91.23;98120.67;105482;1258;102621;-76
2023/01/17 14:10:52;;;;;;;14.80;9.10;;;;;;;5.73;90.85;98120.32;105992;1259;99058;-77
2023/01/17 14:13:38;;;;;;;15.40;9.50;;;;;;;5.72;90.92;98119.88;105342;1260;108090;-76
2023/01/17 14:16:27;;;;;;;17.80;9.90;;;;;;;5.72;90.81;98125.19;105632;1260;98024;-77
2023/01/17 14:19:35;;;;;;;18.00;9.70;;;;;;;5.72;90.84;98128.63;105462;1258;97918;-76
2023/01/17 14:22:20;;;;;;;16.90;10.30;;;;;;;5.70;90.83;98137.54;105387;1258;102708;-76
2023/01/17 14:25:13;;;;;;;19.30;10.60;;;;;;;5.69;90.81;98140.00;105426;1264;100824;-76
2023/01/17 14:28:05;;;;;;;21.10;12.10;;;;;;;5.68;90.69;98145.94;105503;1256;99979;-75